sensor_id;sensor_type;location;lat;lon;timestamp;P1;durP1;ratioP1;P2;durP2;ratioP2
37169;SDS011;23062;13.952;100.608;2023-02-28T00:03:55;701.00;;;522.00;;
37169;SDS011;23062;13.952;100.608;2023-02-28T00:08:20;441.00;;;328.00;;
37169;SDS011;23062;13.952;100.608;2023-02-28T00:12:47;61.00;;;47.00;;
37169;SDS011;23062;13.952;100.608;2023-02-28T00:17:13;136.00;;;108.00;;
37169;SDS011;23062;13.952;100.608;2023-02-28T00:21:41;58.00;;;43.00;;
37169;SDS011;23062;13.952;100.608;2023-02-28T00:26:06;439.00;;;349.00;;
37169;SDS011;23062;13.952;100.608;2023-02-28T00:30:32;71.00;;;53.00;;
37169;SDS011;23062;13.952;100.608;2023-02-28T00:34:56;70.00;;;53.00;;
37169;SDS011;23062;13.952;100.608;2023-02-28T00:39:22;61.00;;;45.00;;
37169;SDS011;23062;13.952;100.608;2023-02-28T00:43:47;61.00;;;47.00;;
37169;SDS011;23062;13.952;100.608;2023-02-28T00:48:21;1418.00;;;1054.00;;
37169;SDS011;23062;13.952;100.608;2023-02-28T00:52:51;290.00;;;229.00;;
37169;SDS011;23062;13.952;100.608;2023-02-28T00:57:17;1954.00;;;1526.00;;
37169;SDS011;23062;13.952;100.608;2023-02-28T01:01:43;1964.00;;;1542.00;;
37169;SDS011;23062;13.952;100.608;2023-02-28T01:06:10;2023.00;;;1580.00;;
37169;SDS011;23062;13.952;100.608;2023-02-28T01:10:51;90.00;;;71.00;;
37169;SDS011;23062;13.952;100.608;2023-02-28T01:15:16;1826.00;;;1330.00;;
37169;SDS011;23062;13.952;100.608;2023-02-28T01:19:41;1531.00;;;1139.00;;
37169;SDS011;23062;13.952;100.608;2023-02-28T01:24:07;91.00;;;72.00;;
37169;SDS011;23062;13.952;100.608;2023-02-28T01:28:33;1414.00;;;1073.00;;
37169;SDS011;23062;13.952;100.608;2023-02-28T01:33:01;896.00;;;691.00;;
37169;SDS011;23062;13.952;100.608;2023-02-28T01:37:27;1211.00;;;915.00;;
37169;SDS011;23062;13.952;100.608;2023-02-28T01:41:52;261.00;;;202.00;;
37169;SDS011;23062;13.952;100.608;2023-02-28T01:46:17;531.00;;;414.00;;
37169;SDS011;23062;13.952;100.608;2023-02-28T01:50:43;53.00;;;42.00;;
37169;SDS011;23062;13.952;100.608;2023-02-28T01:55:11;455.00;;;346.00;;
37169;SDS011;23062;13.952;100.608;2023-02-28T02:04:14;1383.00;;;1076.00;;
37169;SDS011;23062;13.952;100.608;2023-02-28T02:08:39;67.00;;;49.00;;
37169;SDS011;23062;13.952;100.608;2023-02-28T02:13:21;44.00;;;33.00;;
37169;SDS011;23062;13.952;100.608;2023-02-28T02:18:04;1604.00;;;1247.00;;
37169;SDS011;23062;13.952;100.608;2023-02-28T02:36:53;1455.00;;;1114.00;;
37169;SDS011;23062;13.952;100.608;2023-02-28T02:41:38;1051.00;;;840.00;;
37169;SDS011;23062;13.952;100.608;2023-02-28T02:50:53;210.00;;;165.00;;
37169;SDS011;23062;13.952;100.608;2023-02-28T02:55:21;50.00;;;40.00;;
37169;SDS011;23062;13.952;100.608;2023-02-28T02:59:48;49.00;;;37.00;;
37169;SDS011;23062;13.952;100.608;2023-02-28T03:04:17;1827.00;;;1290.80;;
37169;SDS011;23062;13.952;100.608;2023-02-28T03:08:43;57.00;;;42.00;;
37169;SDS011;23062;13.952;100.608;2023-02-28T03:27:12;528.00;;;409.00;;
37169;SDS011;23062;13.952;100.608;2023-02-28T03:31:39;615.00;;;493.00;;
37169;SDS011;23062;13.952;100.608;2023-02-28T03:36:14;1392.00;;;1077.00;;
37169;SDS011;23062;13.952;100.608;2023-02-28T03:40:41;164.00;;;130.00;;
37169;SDS011;23062;13.952;100.608;2023-02-28T03:49:48;1371.00;;;1096.00;;
37169;SDS011;23062;13.952;100.608;2023-02-28T03:54:22;39.00;;;30.00;;
37169;SDS011;23062;13.952;100.608;2023-02-28T03:59:10;36.00;;;27.00;;
37169;SDS011;23062;13.952;100.608;2023-02-28T04:03:51;36.00;;;28.00;;
37169;SDS011;23062;13.952;100.608;2023-02-28T04:08:17;1652.00;;;1322.00;;
37169;SDS011;23062;13.952;100.608;2023-02-28T04:12:42;1853.00;;;1349.60;;
37169;SDS011;23062;13.952;100.608;2023-02-28T04:17:09;1272.00;;;987.00;;
37169;SDS011;23062;13.952;100.608;2023-02-28T04:21:36;287.00;;;214.00;;
37169;SDS011;23062;13.952;100.608;2023-02-28T04:26:02;1224.00;;;974.00;;
37169;SDS011;23062;13.952;100.608;2023-02-28T04:30:28;138.00;;;108.00;;
37169;SDS011;23062;13.952;100.608;2023-02-28T04:34:55;1100.00;;;849.00;;
37169;SDS011;23062;13.952;100.608;2023-02-28T04:39:22;1836.00;;;1383.00;;
37169;SDS011;23062;13.952;100.608;2023-02-28T04:43:53;1735.00;;;1293.00;;
37169;SDS011;23062;13.952;100.608;2023-02-28T04:48:18;1512.00;;;1195.00;;
37169;SDS011;23062;13.952;100.608;2023-02-28T04:52:43;41.00;;;31.00;;
37169;SDS011;23062;13.952;100.608;2023-02-28T04:57:09;53.00;;;39.00;;
37169;SDS011;23062;13.952;100.608;2023-02-28T05:01:39;199.00;;;148.00;;
37169;SDS011;23062;13.952;100.608;2023-02-28T05:06:06;1021.00;;;788.00;;
37169;SDS011;23062;13.952;100.608;2023-02-28T05:10:32;1130.00;;;868.00;;
37169;SDS011;23062;13.952;100.608;2023-02-28T05:14:58;1300.00;;;1002.00;;
37169;SDS011;23062;13.952;100.608;2023-02-28T05:19:25;1113.00;;;878.00;;
37169;SDS011;23062;13.952;100.608;2023-02-28T05:23:51;1893.00;;;1365.47;;
37169;SDS011;23062;13.952;100.608;2023-02-28T05:28:17;71.00;;;54.00;;
37169;SDS011;23062;13.952;100.608;2023-02-28T05:32:42;65.00;;;51.00;;
37169;SDS011;23062;13.952;100.608;2023-02-28T05:37:10;299.00;;;234.00;;
37169;SDS011;23062;13.952;100.608;2023-02-28T05:41:34;314.00;;;244.00;;
37169;SDS011;23062;13.952;100.608;2023-02-28T05:46:01;1051.00;;;784.00;;
37169;SDS011;23062;13.952;100.608;2023-02-28T05:50:27;1675.00;;;1300.00;;
37169;SDS011;23062;13.952;100.608;2023-02-28T05:54:51;313.00;;;245.00;;
37169;SDS011;23062;13.952;100.608;2023-02-28T05:59:16;1935.00;;;1523.00;;
37169;SDS011;23062;13.952;100.608;2023-02-28T06:03:41;1959.00;;;1363.60;;
37169;SDS011;23062;13.952;100.608;2023-02-28T06:08:06;2004.00;;;1604.00;;
37169;SDS011;23062;13.952;100.608;2023-02-28T06:12:31;1406.00;;;1126.00;;
37169;SDS011;23062;13.952;100.608;2023-02-28T06:16:57;1981.00;;;1577.00;;
37169;SDS011;23062;13.952;100.608;2023-02-28T06:21:23;1133.00;;;887.00;;
37169;SDS011;23062;13.952;100.608;2023-02-28T06:25:50;1843.00;;;1402.00;;
37169;SDS011;23062;13.952;100.608;2023-02-28T06:30:18;2143.00;;;1630.00;;
37169;SDS011;23062;13.952;100.608;2023-02-28T06:34:52;1916.00;;;1513.00;;
37169;SDS011;23062;13.952;100.608;2023-02-28T06:39:22;1904.00;;;1508.00;;
37169;SDS011;23062;13.952;100.608;2023-02-28T06:43:47;2084.00;;;1594.00;;
37169;SDS011;23062;13.952;100.608;2023-02-28T06:48:15;2119.00;;;1614.00;;
37169;SDS011;23062;13.952;100.608;2023-02-28T06:52:41;2286.00;;;1717.00;;
37169;SDS011;23062;13.952;100.608;2023-02-28T06:57:06;1890.00;;;1389.73;;
37169;SDS011;23062;13.952;100.608;2023-02-28T07:01:31;62.00;;;49.00;;
37169;SDS011;23062;13.952;100.608;2023-02-28T07:05:56;59.00;;;45.00;;
37169;SDS011;23062;13.952;100.608;2023-02-28T07:10:21;2146.00;;;1667.00;;
37169;SDS011;23062;13.952;100.608;2023-02-28T07:14:47;1779.00;;;1425.00;;
37169;SDS011;23062;13.952;100.608;2023-02-28T07:19:12;1541.00;;;1215.00;;
37169;SDS011;23062;13.952;100.608;2023-02-28T07:23:37;135.00;;;106.00;;
37169;SDS011;23062;13.952;100.608;2023-02-28T07:28:04;1953.00;;;1557.00;;
37169;SDS011;23062;13.952;100.608;2023-02-28T07:32:29;2117.00;;;1618.00;;
37169;SDS011;23062;13.952;100.608;2023-02-28T07:36:54;44.00;;;34.00;;
37169;SDS011;23062;13.952;100.608;2023-02-28T07:41:20;175.00;;;137.00;;
37169;SDS011;23062;13.952;100.608;2023-02-28T07:45:47;482.00;;;382.00;;
37169;SDS011;23062;13.952;100.608;2023-02-28T07:50:13;1676.00;;;1277.00;;
37169;SDS011;23062;13.952;100.608;2023-02-28T07:54:40;767.00;;;600.00;;
37169;SDS011;23062;13.952;100.608;2023-02-28T07:59:04;1502.00;;;1126.00;;
37169;SDS011;23062;13.952;100.608;2023-02-28T08:03:37;1389.00;;;1110.00;;
37169;SDS011;23062;13.952;100.608;2023-02-28T08:08:03;1241.00;;;961.00;;
37169;SDS011;23062;13.952;100.608;2023-02-28T08:12:28;845.00;;;649.00;;
37169;SDS011;23062;13.952;100.608;2023-02-28T08:16:54;860.00;;;654.00;;
37169;SDS011;23062;13.952;100.608;2023-02-28T08:21:19;554.00;;;421.00;;
37169;SDS011;23062;13.952;100.608;2023-02-28T08:25:52;483.00;;;359.00;;
37169;SDS011;23062;13.952;100.608;2023-02-28T08:30:21;543.00;;;404.00;;
37169;SDS011;23062;13.952;100.608;2023-02-28T08:34:46;407.00;;;323.00;;
37169;SDS011;23062;13.952;100.608;2023-02-28T08:39:15;401.00;;;317.00;;
37169;SDS011;23062;13.952;100.608;2023-02-28T08:43:43;395.00;;;312.00;;
37169;SDS011;23062;13.952;100.608;2023-02-28T08:48:11;541.00;;;410.00;;
37169;SDS011;23062;13.952;100.608;2023-02-28T08:52:37;1024.00;;;810.00;;
37169;SDS011;23062;13.952;100.608;2023-02-28T08:57:03;768.00;;;585.00;;
37169;SDS011;23062;13.952;100.608;2023-02-28T09:01:28;926.00;;;727.00;;
37169;SDS011;23062;13.952;100.608;2023-02-28T09:05:59;1412.00;;;1065.00;;
37169;SDS011;23062;13.952;100.608;2023-02-28T09:10:25;1500.00;;;1172.00;;
37169;SDS011;23062;13.952;100.608;2023-02-28T09:14:50;1629.00;;;1269.00;;
37169;SDS011;23062;13.952;100.608;2023-02-28T09:19:18;1245.00;;;986.00;;
37169;SDS011;23062;13.952;100.608;2023-02-28T09:23:43;1456.00;;;1108.00;;
37169;SDS011;23062;13.952;100.608;2023-02-28T09:28:09;1726.00;;;1317.00;;
37169;SDS011;23062;13.952;100.608;2023-02-28T09:32:35;1943.00;;;1459.00;;
37169;SDS011;23062;13.952;100.608;2023-02-28T09:37:00;1994.00;;;1568.00;;
37169;SDS011;23062;13.952;100.608;2023-02-28T09:41:25;2085.00;;;1573.00;;
37169;SDS011;23062;13.952;100.608;2023-02-28T09:46:05;2105.00;;;1584.00;;
37169;SDS011;23062;13.952;100.608;2023-02-28T09:50:46;2069.00;;;1592.00;;
37169;SDS011;23062;13.952;100.608;2023-02-28T09:55:41;1722.00;;;1157.00;;
37169;SDS011;23062;13.952;100.608;2023-02-28T10:00:18;2115.00;;;1636.00;;
37169;SDS011;23062;13.952;100.608;2023-02-28T10:13:54;2098.00;;;1667.00;;
37169;SDS011;23062;13.952;100.608;2023-02-28T10:18:37;2139.00;;;1646.00;;
37169;SDS011;23062;13.952;100.608;2023-02-28T10:27:25;2081.00;;;1654.00;;
37169;SDS011;23062;13.952;100.608;2023-02-28T10:31:51;2267.00;;;1687.00;;
37169;SDS011;23062;13.952;100.608;2023-02-28T10:36:17;2080.00;;;1626.00;;
37169;SDS011;23062;13.952;100.608;2023-02-28T10:40:44;2134.00;;;1659.00;;
37169;SDS011;23062;13.952;100.608;2023-02-28T10:49:52;2149.00;;;1682.00;;
37169;SDS011;23062;13.952;100.608;2023-02-28T10:54:19;2082.00;;;1652.00;;
37169;SDS011;23062;13.952;100.608;2023-02-28T10:58:47;2040.00;;;1630.00;;
37169;SDS011;23062;13.952;100.608;2023-02-28T11:07:53;2092.00;;;1668.00;;
37169;SDS011;23062;13.952;100.608;2023-02-28T11:16:48;2067.00;;;1630.00;;
37169;SDS011;23062;13.952;100.608;2023-02-28T11:21:22;2110.00;;;1645.00;;
37169;SDS011;23062;13.952;100.608;2023-02-28T11:25:56;2077.00;;;1635.00;;
37169;SDS011;23062;13.952;100.608;2023-02-28T11:39:35;2180.00;;;1631.00;;
37169;SDS011;23062;13.952;100.608;2023-02-28T11:44:13;2039.00;;;1613.00;;
37169;SDS011;23062;13.952;100.608;2023-02-28T11:53:31;2067.00;;;1627.00;;
37169;SDS011;23062;13.952;100.608;2023-02-28T12:02:58;2093.00;;;1579.00;;
37169;SDS011;23062;13.952;100.608;2023-02-28T12:12:39;1948.00;;;1512.00;;
37169;SDS011;23062;13.952;100.608;2023-02-28T12:17:27;2032.00;;;1533.00;;
37169;SDS011;23062;13.952;100.608;2023-02-28T12:31:14;2057.00;;;1605.00;;
37169;SDS011;23062;13.952;100.608;2023-02-28T12:35:46;2118.00;;;1631.00;;
37169;SDS011;23062;13.952;100.608;2023-02-28T12:40:18;2229.00;;;1661.00;;
37169;SDS011;23062;13.952;100.608;2023-02-28T12:44:46;2103.00;;;1665.00;;
37169;SDS011;23062;13.952;100.608;2023-02-28T12:49:15;2082.00;;;1643.00;;
37169;SDS011;23062;13.952;100.608;2023-02-28T12:58:34;2222.00;;;1672.00;;
37169;SDS011;23062;13.952;100.608;2023-02-28T13:12:46;2165.00;;;1737.00;;
37169;SDS011;23062;13.952;100.608;2023-02-28T13:17:20;2236.00;;;1706.00;;
37169;SDS011;23062;13.952;100.608;2023-02-28T13:21:53;2229.00;;;1719.00;;
37169;SDS011;23062;13.952;100.608;2023-02-28T13:26:32;2288.00;;;1731.00;;
37169;SDS011;23062;13.952;100.608;2023-02-28T13:31:03;2209.00;;;1682.00;;
37169;SDS011;23062;13.952;100.608;2023-02-28T13:35:35;2174.00;;;1715.00;;
37169;SDS011;23062;13.952;100.608;2023-02-28T13:49:35;2124.00;;;1703.00;;
37169;SDS011;23062;13.952;100.608;2023-02-28T13:54:04;2119.00;;;1702.00;;
37169;SDS011;23062;13.952;100.608;2023-02-28T14:08:23;2161.00;;;1730.00;;
37169;SDS011;23062;13.952;100.608;2023-02-28T14:13:00;2175.00;;;1730.00;;
37169;SDS011;23062;13.952;100.608;2023-02-28T14:17:27;2226.00;;;1722.00;;
37169;SDS011;23062;13.952;100.608;2023-02-28T14:22:16;2212.00;;;1725.00;;
37169;SDS011;23062;13.952;100.608;2023-02-28T14:31:39;2289.00;;;1736.00;;
37169;SDS011;23062;13.952;100.608;2023-02-28T14:41:04;2209.00;;;1724.00;;
37169;SDS011;23062;13.952;100.608;2023-02-28T14:45:35;2184.00;;;1711.00;;
37169;SDS011;23062;13.952;100.608;2023-02-28T14:50:02;2174.00;;;1715.00;;
37169;SDS011;23062;13.952;100.608;2023-02-28T14:54:29;2238.00;;;1729.00;;
37169;SDS011;23062;13.952;100.608;2023-02-28T14:58:57;2243.00;;;1729.00;;
37169;SDS011;23062;13.952;100.608;2023-02-28T15:03:35;2258.00;;;1728.00;;
37169;SDS011;23062;13.952;100.608;2023-02-28T15:08:06;1626.00;;;1197.47;;
37169;SDS011;23062;13.952;100.608;2023-02-28T15:12:34;2193.00;;;1721.00;;
37169;SDS011;23062;13.952;100.608;2023-02-28T15:17:01;2191.00;;;1722.00;;
37169;SDS011;23062;13.952;100.608;2023-02-28T15:21:36;2326.00;;;1730.00;;
37169;SDS011;23062;13.952;100.608;2023-02-28T15:26:06;1683.00;;;1200.27;;
37169;SDS011;23062;13.952;100.608;2023-02-28T15:30:35;2191.00;;;1730.00;;
37169;SDS011;23062;13.952;100.608;2023-02-28T15:39:48;2283.00;;;1725.00;;
37169;SDS011;23062;13.952;100.608;2023-02-28T15:44:17;2214.00;;;1722.00;;
37169;SDS011;23062;13.952;100.608;2023-02-28T15:48:54;2135.00;;;1710.00;;
37169;SDS011;23062;13.952;100.608;2023-02-28T15:53:24;2128.00;;;1709.00;;
37169;SDS011;23062;13.952;100.608;2023-02-28T15:57:52;2124.00;;;1706.00;;
37169;SDS011;23062;13.952;100.608;2023-02-28T16:02:22;1656.00;;;1190.00;;
37169;SDS011;23062;13.952;100.608;2023-02-28T16:07:04;2273.00;;;1703.00;;
37169;SDS011;23062;13.952;100.608;2023-02-28T16:11:35;2134.00;;;1708.00;;
37169;SDS011;23062;13.952;100.608;2023-02-28T16:16:03;2191.00;;;1687.00;;
37169;SDS011;23062;13.952;100.608;2023-02-28T16:20:29;2151.00;;;1697.00;;
37169;SDS011;23062;13.952;100.608;2023-02-28T16:24:54;2217.00;;;1690.00;;
37169;SDS011;23062;13.952;100.608;2023-02-28T16:29:23;2128.00;;;1709.00;;
37169;SDS011;23062;13.952;100.608;2023-02-28T16:34:02;2181.00;;;1702.00;;
37169;SDS011;23062;13.952;100.608;2023-02-28T16:38:29;2292.00;;;1706.00;;
37169;SDS011;23062;13.952;100.608;2023-02-28T16:43:03;2238.00;;;1704.00;;
37169;SDS011;23062;13.952;100.608;2023-02-28T16:47:30;2202.00;;;1720.00;;
37169;SDS011;23062;13.952;100.608;2023-02-28T16:51:57;1643.00;;;1190.00;;
37169;SDS011;23062;13.952;100.608;2023-02-28T16:56:23;2199.00;;;1709.00;;
37169;SDS011;23062;13.952;100.608;2023-02-28T17:00:49;2170.00;;;1704.00;;
37169;SDS011;23062;13.952;100.608;2023-02-28T17:05:16;2235.00;;;1691.00;;
37169;SDS011;23062;13.952;100.608;2023-02-28T17:09:42;2115.00;;;1682.00;;
37169;SDS011;23062;13.952;100.608;2023-02-28T17:14:09;2277.00;;;1711.00;;
37169;SDS011;23062;13.952;100.608;2023-02-28T17:18:36;2180.00;;;1701.00;;
37169;SDS011;23062;13.952;100.608;2023-02-28T17:23:01;2235.00;;;1699.00;;
37169;SDS011;23062;13.952;100.608;2023-02-28T17:27:27;2239.00;;;1711.00;;
37169;SDS011;23062;13.952;100.608;2023-02-28T17:31:55;2240.00;;;1704.00;;
37169;SDS011;23062;13.952;100.608;2023-02-28T17:36:25;2282.00;;;1702.00;;
37169;SDS011;23062;13.952;100.608;2023-02-28T17:40:51;2161.00;;;1677.00;;
37169;SDS011;23062;13.952;100.608;2023-02-28T17:45:20;2041.00;;;1623.00;;
37169;SDS011;23062;13.952;100.608;2023-02-28T17:49:48;1854.00;;;1479.00;;
37169;SDS011;23062;13.952;100.608;2023-02-28T17:54:21;2116.00;;;1622.00;;
37169;SDS011;23062;13.952;100.608;2023-02-28T17:58:48;2084.00;;;1664.00;;
37169;SDS011;23062;13.952;100.608;2023-02-28T18:03:14;2062.00;;;1653.00;;
37169;SDS011;23062;13.952;100.608;2023-02-28T18:07:42;2127.00;;;1668.00;;
37169;SDS011;23062;13.952;100.608;2023-02-28T18:12:08;2145.00;;;1662.00;;
37169;SDS011;23062;13.952;100.608;2023-02-28T18:16:36;2142.00;;;1681.00;;
37169;SDS011;23062;13.952;100.608;2023-02-28T18:21:04;2206.00;;;1678.00;;
37169;SDS011;23062;13.952;100.608;2023-02-28T18:25:41;2204.00;;;1670.00;;
37169;SDS011;23062;13.952;100.608;2023-02-28T18:30:10;2089.00;;;1676.00;;
37169;SDS011;23062;13.952;100.608;2023-02-28T18:34:43;2025.00;;;1532.00;;
37169;SDS011;23062;13.952;100.608;2023-02-28T18:39:09;2129.00;;;1643.00;;
37169;SDS011;23062;13.952;100.608;2023-02-28T18:43:37;1905.00;;;1516.00;;
37169;SDS011;23062;13.952;100.608;2023-02-28T18:48:04;1783.00;;;1431.00;;
37169;SDS011;23062;13.952;100.608;2023-02-28T18:52:30;1797.00;;;1438.00;;
37169;SDS011;23062;13.952;100.608;2023-02-28T18:56:56;1882.00;;;1473.00;;
37169;SDS011;23062;13.952;100.608;2023-02-28T19:01:26;1870.00;;;1473.00;;
37169;SDS011;23062;13.952;100.608;2023-02-28T19:05:54;2054.00;;;1567.00;;
37169;SDS011;23062;13.952;100.608;2023-02-28T19:10:22;2097.00;;;1629.00;;
37169;SDS011;23062;13.952;100.608;2023-02-28T19:14:47;2010.00;;;1604.00;;
37169;SDS011;23062;13.952;100.608;2023-02-28T19:19:13;2039.00;;;1606.00;;
37169;SDS011;23062;13.952;100.608;2023-02-28T19:23:39;2139.00;;;1631.00;;
37169;SDS011;23062;13.952;100.608;2023-02-28T19:28:05;2011.00;;;1495.00;;
37169;SDS011;23062;13.952;100.608;2023-02-28T19:32:31;2111.00;;;1627.00;;
37169;SDS011;23062;13.952;100.608;2023-02-28T19:36:57;2049.00;;;1589.00;;
37169;SDS011;23062;13.952;100.608;2023-02-28T19:41:23;2140.00;;;1653.00;;
37169;SDS011;23062;13.952;100.608;2023-02-28T19:45:50;2103.00;;;1580.00;;
37169;SDS011;23062;13.952;100.608;2023-02-28T19:50:15;2114.00;;;1623.00;;
37169;SDS011;23062;13.952;100.608;2023-02-28T19:54:41;2174.00;;;1672.00;;
37169;SDS011;23062;13.952;100.608;2023-02-28T19:59:10;2041.00;;;1600.00;;
37169;SDS011;23062;13.952;100.608;2023-02-28T20:03:36;2127.00;;;1619.00;;
37169;SDS011;23062;13.952;100.608;2023-02-28T20:08:02;2094.00;;;1630.00;;
37169;SDS011;23062;13.952;100.608;2023-02-28T20:12:28;2166.00;;;1676.00;;
37169;SDS011;23062;13.952;100.608;2023-02-28T20:16:54;1989.00;;;1563.00;;
37169;SDS011;23062;13.952;100.608;2023-02-28T20:21:21;1973.00;;;1549.00;;
37169;SDS011;23062;13.952;100.608;2023-02-28T20:25:50;2060.00;;;1605.00;;
37169;SDS011;23062;13.952;100.608;2023-02-28T20:30:16;2029.00;;;1610.00;;
37169;SDS011;23062;13.952;100.608;2023-02-28T20:34:46;2201.00;;;1683.00;;
37169;SDS011;23062;13.952;100.608;2023-02-28T20:39:18;2218.00;;;1676.00;;
37169;SDS011;23062;13.952;100.608;2023-02-28T20:43:43;2149.00;;;1669.00;;
37169;SDS011;23062;13.952;100.608;2023-02-28T20:48:09;2163.00;;;1680.00;;
37169;SDS011;23062;13.952;100.608;2023-02-28T20:52:36;2186.00;;;1681.00;;
37169;SDS011;23062;13.952;100.608;2023-02-28T20:57:02;2157.00;;;1669.00;;
37169;SDS011;23062;13.952;100.608;2023-02-28T21:01:28;2075.00;;;1654.00;;
37169;SDS011;23062;13.952;100.608;2023-02-28T21:06:01;2123.00;;;1635.00;;
37169;SDS011;23062;13.952;100.608;2023-02-28T21:10:30;2109.00;;;1624.00;;
37169;SDS011;23062;13.952;100.608;2023-02-28T21:15:02;2161.00;;;1659.00;;
37169;SDS011;23062;13.952;100.608;2023-02-28T21:19:28;2093.00;;;1640.00;;
37169;SDS011;23062;13.952;100.608;2023-02-28T21:23:56;2155.00;;;1647.00;;
37169;SDS011;23062;13.952;100.608;2023-02-28T21:28:22;2124.00;;;1641.00;;
37169;SDS011;23062;13.952;100.608;2023-02-28T21:32:48;2132.00;;;1660.00;;
37169;SDS011;23062;13.952;100.608;2023-02-28T21:37:14;2188.00;;;1664.00;;
37169;SDS011;23062;13.952;100.608;2023-02-28T21:41:40;2121.00;;;1671.00;;
37169;SDS011;23062;13.952;100.608;2023-02-28T21:46:07;2104.00;;;1675.00;;
37169;SDS011;23062;13.952;100.608;2023-02-28T21:50:34;2184.00;;;1673.00;;
37169;SDS011;23062;13.952;100.608;2023-02-28T21:55:00;2090.00;;;1665.00;;
37169;SDS011;23062;13.952;100.608;2023-02-28T21:59:26;2124.00;;;1643.00;;
37169;SDS011;23062;13.952;100.608;2023-02-28T22:03:51;2133.00;;;1658.00;;
37169;SDS011;23062;13.952;100.608;2023-02-28T22:08:20;2118.00;;;1636.00;;
37169;SDS011;23062;13.952;100.608;2023-02-28T22:12:46;2091.00;;;1638.00;;
37169;SDS011;23062;13.952;100.608;2023-02-28T22:17:11;2104.00;;;1618.00;;
37169;SDS011;23062;13.952;100.608;2023-02-28T22:21:37;2061.00;;;1630.00;;
37169;SDS011;23062;13.952;100.608;2023-02-28T22:26:05;2051.00;;;1629.00;;
37169;SDS011;23062;13.952;100.608;2023-02-28T22:30:31;2110.00;;;1617.00;;
37169;SDS011;23062;13.952;100.608;2023-02-28T22:35:00;2163.00;;;1623.00;;
37169;SDS011;23062;13.952;100.608;2023-02-28T22:39:26;2159.00;;;1616.00;;
37169;SDS011;23062;13.952;100.608;2023-02-28T22:43:52;2074.00;;;1617.00;;
37169;SDS011;23062;13.952;100.608;2023-02-28T22:48:20;2156.00;;;1619.00;;
37169;SDS011;23062;13.952;100.608;2023-02-28T22:52:46;2072.00;;;1630.00;;
37169;SDS011;23062;13.952;100.608;2023-02-28T22:57:14;2169.00;;;1635.00;;
37169;SDS011;23062;13.952;100.608;2023-02-28T23:01:40;2168.00;;;1637.00;;
37169;SDS011;23062;13.952;100.608;2023-02-28T23:06:11;2206.00;;;1650.00;;
37169;SDS011;23062;13.952;100.608;2023-02-28T23:10:56;2174.00;;;1645.00;;
37169;SDS011;23062;13.952;100.608;2023-02-28T23:15:22;2079.00;;;1651.00;;
37169;SDS011;23062;13.952;100.608;2023-02-28T23:19:47;1617.00;;;1186.27;;
37169;SDS011;23062;13.952;100.608;2023-02-28T23:24:16;2046.00;;;1643.00;;
37169;SDS011;23062;13.952;100.608;2023-02-28T23:28:44;2212.00;;;1652.00;;
37169;SDS011;23062;13.952;100.608;2023-02-28T23:33:10;2141.00;;;1654.00;;
37169;SDS011;23062;13.952;100.608;2023-02-28T23:37:36;1670.00;;;1173.20;;
37169;SDS011;23062;13.952;100.608;2023-02-28T23:42:02;2038.00;;;1634.00;;
37169;SDS011;23062;13.952;100.608;2023-02-28T23:46:28;2086.00;;;1637.00;;
37169;SDS011;23062;13.952;100.608;2023-02-28T23:50:53;2065.00;;;1633.00;;
37169;SDS011;23062;13.952;100.608;2023-02-28T23:55:20;2136.00;;;1646.00;;
37169;SDS011;23062;13.952;100.608;2023-02-28T23:59:47;2071.00;;;1637.00;;
